Aérodrome :
LOGIN :

S'inscrire | Disclaimer

   EN    FR    IT 

 










Légende :    VFR   VFR Marginal   IFR   IFR Intensif   IFR Très Intensif
Visi : 
Plafond : 
>= 8 km
>= 3000ft
5 à 8 km
1000 à 3000 ft
1500m à 5 km
500 à 1000 ft
800 à 1500m
200 à 500 ft
< 800m
< 200 ft
Symboles :   Orages  Brouillard  Fortes neiges  Fortes précipitations  Vent > 20 kt
SIGMETs :   Divers  Orages  Givrage  Turbulence  Onde Orograph.  Cendres Volcan.






- Altitude de l'aérodrome : 325 ft
- Code IATA : BES


LFRB - Brest

DERNIER METAR :
  • 230200Z AUTO 26003KT 2900 -DZ BR OVC003 08/08 Q0983 TEMPO 4000 RA

METARs EXPIRÉS :
  • 230130Z AUTO VRB03KT 3300 -DZ BR OVC004 08/08 Q0982
  • 230100Z AUTO VRB03KT 6000 OVC004 09/08 Q0982 TEMPO 4000 RA
  • 230030Z AUTO 31002KT 5000 BR OVC006 09/08 Q0982 TEMPO RA OVC004
  • 230000Z AUTO VRB02KT 5000 -RA BR OVC007 09/08 Q0981 TEMPO RA OVC004
  • 222330Z AUTO 03004KT 5000 -RA BR OVC008 09/08 Q0981 TEMPO RA OVC004

TAF TAF LFRB
Valide du 23 à 00h jusqu'au 24 à 06h UTC


222300Z 2300/2406 36005KT 9999 BKN010
TEMPO 2300/2307 4000 RA OVC004
TEMPO 2307/2322 4000 SHRA BKN010TCU
BECMG 2306/2308 31015KT
ATIS : +33 2 98 32 02 71



MET'MAP, la Météo Aéronautique d'un coup d'oeil ! - Copyright ORBIFLY Décembre 2007 - Disclaimer

ORBIFLY MET'MAP TEAM :

Programmation & Développement : Alexandra Zaïnal
Conception & Développement : Baudouin d'Aumeries
Co-Programmation & Développement : Marc-Olivier Méhu
Soutien technique & logistique : Manuel Goepfert

Contact : metmap@orbifly.com




SOURCES & CREDITS :

   NOAA